Time;durP1;ratioP1;P1;durP2;ratioP2;P2;SDS_P1;SDS_P2;PMS_P1;PMS_P2;Temp;Humidity;BMP_temperature;BMP_pressure;BME280_temperature;BME280_humidity;BME280_pressure;Samples;Min_cycle;Max_cycle;Signal;HPM_P1;HPM_P2
2021/12/14 00:01:34;;;;;;;14.35;10.13;;;;;;;;;;5034768;28;20497;-75
2021/12/14 00:04:04;;;;;;;16.35;10.73;;;;;;;;;;5034176;28;20494;-74
2021/12/14 00:06:30;;;;;;;19.67;12.00;;;;;;;;;;5034498;28;20022;-76
2021/12/14 00:08:58;;;;;;;15.77;11.55;;;;;;;;;;5025779;28;20041;-75
2021/12/14 00:14:25;;;;;;;;;;;;;;;;;;;;;
2021/12/14 00:16:36;;;;;;;18.80;11.70;;;;;;;;;;5034444;28;20029;-75
2021/12/14 00:19:03;;;;;;;19.35;11.85;;;;;;;;;;5032934;28;20018;-75
2021/12/14 00:21:30;;;;;;;18.65;12.00;;;;;;;;;;5020963;28;20057;-75
2021/12/14 00:24:07;;;;;;;19.80;12.13;;;;;;;;;;5030809;28;20026;-76
2021/12/14 00:26:36;;;;;;;19.30;12.00;;;;;;;;;;5034157;28;20048;-73
2021/12/14 00:29:02;;;;;;;17.55;11.35;;;;;;;;;;5034325;28;20029;-75
2021/12/14 00:31:28;;;;;;;18.70;11.23;;;;;;;;;;5033628;28;20029;-76
2021/12/14 00:33:56;;;;;;;16.25;11.80;;;;;;;;;;5033281;28;20022;-77
2021/12/14 00:36:22;;;;;;;16.95;9.80;;;;;;;;;;5032312;28;20067;-75
2021/12/14 00:38:51;;;;;;;17.30;10.32;;;;;;;;;;5033898;28;20017;-78
2021/12/14 00:41:20;;;;;;;15.93;9.10;;;;;;;;;;5033650;28;20017;-76
2021/12/14 00:43:46;;;;;;;14.30;9.90;;;;;;;;;;5031550;28;20032;-75
2021/12/14 00:46:13;;;;;;;14.38;9.25;;;;;;;;;;5033232;28;20108;-75
2021/12/14 00:48:39;;;;;;;13.00;9.10;;;;;;;;;;5033525;28;20068;-75
2021/12/14 00:51:06;;;;;;;13.18;9.38;;;;;;;;;;5033665;28;20099;-75
2021/12/14 00:53:32;;;;;;;13.75;9.07;;;;;;;;;;5026714;28;20026;-75
2021/12/14 00:55:59;;;;;;;13.50;9.63;;;;;;;;;;5031898;28;20026;-75
2021/12/14 00:58:25;;;;;;;14.10;9.23;;;;;;;;;;5033027;28;20025;-76
2021/12/14 01:01:04;;;;;;;12.60;8.88;;;;;;;;;;5031922;28;20030;-78
2021/12/14 01:03:32;;;;;;;14.10;9.05;;;;;;;;;;5032501;28;20033;-75
2021/12/14 01:05:58;;;;;;;13.02;8.90;;;;;;;;;;5033071;28;20037;-75
2021/12/14 01:08:26;;;;;;;12.85;8.63;;;;;;;;;;5031380;28;20025;-75
2021/12/14 01:11:08;;;;;;;16.38;8.68;;;;;;;;;;5027862;28;20513;-76
2021/12/14 01:13:38;;;;;;;12.65;8.25;;;;;;;;;;5032533;28;20025;-76
2021/12/14 01:16:19;;;;;;;13.30;8.73;;;;;;;;;;5031719;28;20095;-75
2021/12/14 01:19:01;;;;;;;13.38;8.52;;;;;;;;;;5033070;28;20041;-75
2021/12/14 01:24:04;;;;;;;11.30;7.28;;;;;;;;;;5029358;28;20029;-75
2021/12/14 01:26:32;;;;;;;12.35;7.88;;;;;;;;;;5032891;28;20383;-75
2021/12/14 01:28:59;;;;;;;12.85;8.60;;;;;;;;;;5032698;28;20032;-77
2021/12/14 01:31:30;;;;;;;13.57;7.93;;;;;;;;;;5031342;28;20026;-74
2021/12/14 01:33:59;;;;;;;12.88;8.27;;;;;;;;;;5031516;28;20045;-74
2021/12/14 01:36:40;;;;;;;11.98;7.55;;;;;;;;;;5032499;28;20358;-74
2021/12/14 01:42:04;;;;;;;11.48;7.55;;;;;;;;;;5032584;28;20109;-74
2021/12/14 01:44:37;;;;;;;16.23;7.90;;;;;;;;;;5032235;28;20025;-74
2021/12/14 01:47:20;;;;;;;11.38;7.72;;;;;;;;;;5031068;28;20022;-77
2021/12/14 01:49:47;;;;;;;11.95;7.85;;;;;;;;;;5032435;28;20063;-74
2021/12/14 01:52:15;;;;;;;10.48;7.65;;;;;;;;;;5031980;28;20031;-74
2021/12/14 01:54:43;;;;;;;13.95;7.88;;;;;;;;;;5031463;28;20025;-74
2021/12/14 01:57:11;;;;;;;10.93;7.55;;;;;;;;;;5032147;28;20053;-74
2021/12/14 01:59:41;;;;;;;11.32;7.15;;;;;;;;;;5032171;28;20029;-75
2021/12/14 02:02:20;;;;;;;10.85;7.32;;;;;;;;;;5031827;28;20036;-75
2021/12/14 02:04:51;;;;;;;11.10;7.55;;;;;;;;;;5030280;28;20029;-74
2021/12/14 02:07:18;;;;;;;9.55;7.05;;;;;;;;;;5031730;28;20033;-74
2021/12/14 02:09:46;;;;;;;11.93;7.80;;;;;;;;;;5032000;28;20028;-75
2021/12/14 02:12:16;;;;;;;13.00;7.47;;;;;;;;;;5031806;28;20514;-74
2021/12/14 02:14:43;;;;;;;10.80;6.88;;;;;;;;;;5030012;28;20025;-74
2021/12/14 02:17:10;;;;;;;10.23;6.60;;;;;;;;;;5031965;28;20030;-74
2021/12/14 02:19:36;;;;;;;10.52;6.45;;;;;;;;;;5031726;28;20021;-76
2021/12/14 02:22:03;;;;;;;11.73;6.93;;;;;;;;;;5014679;28;20072;-77
2021/12/14 02:24:30;;;;;;;8.63;6.65;;;;;;;;;;5030780;28;20112;-75
2021/12/14 02:26:56;;;;;;;8.48;5.68;;;;;;;;;;5031748;28;20028;-76
2021/12/14 02:29:26;;;;;;;10.75;6.75;;;;;;;;;;5031727;28;20033;-75
2021/12/14 02:31:53;;;;;;;8.82;6.57;;;;;;;;;;5031566;28;20025;-76
2021/12/14 02:34:19;;;;;;;9.40;6.45;;;;;;;;;;5030614;28;20033;-75
2021/12/14 02:36:47;;;;;;;10.85;6.68;;;;;;;;;;5030078;28;20021;-76
2021/12/14 02:39:45;;;;;;;8.68;6.07;;;;;;;;;;5031487;28;20029;-75
2021/12/14 02:42:11;;;;;;;12.32;6.57;;;;;;;;;;5031093;28;20040;-75
2021/12/14 02:44:37;;;;;;;9.98;6.13;;;;;;;;;;5030548;28;20025;-75
2021/12/14 02:47:10;;;;;;;9.15;6.57;;;;;;;;;;5029878;28;20491;-74
2021/12/14 02:49:37;;;;;;;10.18;6.65;;;;;;;;;;5030119;28;20022;-74
2021/12/14 02:52:06;;;;;;;9.65;6.50;;;;;;;;;;5031246;28;20057;-74
2021/12/14 02:54:37;;;;;;;9.00;6.32;;;;;;;;;;5027227;28;20021;-77
2021/12/14 02:57:09;;;;;;;10.68;7.03;;;;;;;;;;5019860;28;20096;-74
2021/12/14 02:59:37;;;;;;;9.00;6.38;;;;;;;;;;5029919;28;20436;-74
2021/12/14 03:02:05;;;;;;;10.00;6.90;;;;;;;;;;5031227;28;20108;-74
2021/12/14 03:04:32;;;;;;;11.82;6.78;;;;;;;;;;5030585;28;20014;-75
2021/12/14 03:07:00;;;;;;;10.10;6.70;;;;;;;;;;5032481;28;20039;-76
2021/12/14 03:12:01;;;;;;;12.27;7.38;;;;;;;;;;5030950;28;20061;-73
2021/12/14 03:14:27;;;;;;;12.90;7.80;;;;;;;;;;5030188;28;20022;-74
2021/12/14 03:16:53;;;;;;;8.50;6.28;;;;;;;;;;5029645;28;20057;-74
2021/12/14 03:19:20;;;;;;;10.68;7.72;;;;;;;;;;5029805;28;20021;-74
2021/12/14 03:21:46;;;;;;;10.63;6.50;;;;;;;;;;5015523;28;20022;-74
2021/12/14 03:24:13;;;;;;;12.57;7.47;;;;;;;;;;5011871;28;20032;-75
2021/12/14 03:26:41;;;;;;;10.38;7.72;;;;;;;;;;5030923;28;20072;-75
2021/12/14 03:29:10;;;;;;;10.98;7.78;;;;;;;;;;5029837;28;20060;-75
2021/12/14 03:31:44;;;;;;;11.18;7.40;;;;;;;;;;5031168;28;20025;-74
2021/12/14 03:34:24;;;;;;;12.88;8.00;;;;;;;;;;5029983;28;20029;-75
2021/12/14 03:37:01;;;;;;;11.23;8.05;;;;;;;;;;5034648;28;20021;-74
2021/12/14 03:39:34;;;;;;;11.05;7.45;;;;;;;;;;5035045;28;20444;-75
2021/12/14 03:42:01;;;;;;;9.27;6.60;;;;;;;;;;5035215;28;20033;-74
2021/12/14 03:44:29;;;;;;;10.32;6.20;;;;;;;;;;5034555;28;20087;-74
2021/12/14 03:47:04;;;;;;;11.40;6.63;;;;;;;;;;5036618;28;20293;-75
2021/12/14 03:49:33;;;;;;;9.90;6.38;;;;;;;;;;5034574;28;20034;-74
2021/12/14 03:51:59;;;;;;;10.93;7.03;;;;;;;;;;5034524;28;20024;-74
2021/12/14 03:54:26;;;;;;;9.63;6.18;;;;;;;;;;5033736;28;20413;-76
2021/12/14 03:56:52;;;;;;;10.60;6.20;;;;;;;;;;5034572;28;20025;-74
2021/12/14 03:59:19;;;;;;;10.00;5.82;;;;;;;;;;5034447;28;20030;-74
2021/12/14 04:01:46;;;;;;;9.93;6.43;;;;;;;;;;5034139;28;20030;-74
2021/12/14 04:04:22;;;;;;;10.75;6.28;;;;;;;;;;5032277;28;20112;-75
2021/12/14 04:06:49;;;;;;;12.25;6.82;;;;;;;;;;5034040;28;20037;-75
2021/12/14 04:09:17;;;;;;;12.98;6.93;;;;;;;;;;5032953;28;20025;-75
2021/12/14 04:11:43;;;;;;;11.18;7.25;;;;;;;;;;5034103;28;20021;-75
2021/12/14 04:14:10;;;;;;;13.90;7.30;;;;;;;;;;5033119;28;20483;-75
2021/12/14 04:16:37;;;;;;;13.00;7.15;;;;;;;;;;5032613;28;20036;-75
2021/12/14 04:19:05;;;;;;;11.20;6.53;;;;;;;;;;5034134;28;20022;-78
2021/12/14 04:21:33;;;;;;;11.73;6.78;;;;;;;;;;5034041;28;20029;-75
2021/12/14 04:23:59;;;;;;;10.18;6.50;;;;;;;;;;5033529;28;20121;-76
2021/12/14 04:26:27;;;;;;;9.68;5.93;;;;;;;;;;5033737;28;20105;-75
2021/12/14 04:28:55;;;;;;;8.90;6.45;;;;;;;;;;5032463;28;20033;-73
2021/12/14 04:31:21;;;;;;;8.95;5.65;;;;;;;;;;5033967;28;20025;-75
2021/12/14 04:33:49;;;;;;;9.88;6.03;;;;;;;;;;5032945;28;20033;-75
2021/12/14 04:36:17;;;;;;;8.57;5.95;;;;;;;;;;5033686;28;20033;-75
2021/12/14 04:38:57;;;;;;;10.02;6.05;;;;;;;;;;5033875;28;20052;-75
2021/12/14 04:52:29;;;;;;;10.13;6.47;;;;;;;;;;5018525;28;20040;-75
2021/12/14 04:55:00;;;;;;;10.45;6.93;;;;;;;;;;5029184;28;20109;-74
2021/12/14 04:57:25;;;;;;;12.90;8.52;;;;;;;;;;5026013;28;20032;-74
2021/12/14 04:59:53;;;;;;;9.68;6.30;;;;;;;;;;5022577;28;20025;-75
2021/12/14 05:02:22;;;;;;;8.88;6.30;;;;;;;;;;5032983;28;20022;-73
2021/12/14 05:04:50;;;;;;;6.78;5.05;;;;;;;;;;5032530;28;20104;-73
2021/12/14 05:09:58;;;;;;;6.82;4.85;;;;;;;;;;5033163;28;20120;-75
2021/12/14 05:12:29;;;;;;;7.63;5.30;;;;;;;;;;5025301;28;20391;-75
2021/12/14 05:14:55;;;;;;;;;;;;;;;;;;5032974;28;20022;-72
2021/12/14 05:17:23;;;;;;;7.72;4.90;;;;;;;;;;5020711;28;20453;-77
2021/12/14 05:19:50;;;;;;;7.13;5.13;;;;;;;;;;5029672;28;20026;-75
2021/12/14 05:22:24;;;;;;;8.50;5.57;;;;;;;;;;5031734;28;20036;-75
2021/12/14 05:24:53;;;;;;;6.97;5.40;;;;;;;;;;5032429;28;20026;-76
2021/12/14 05:27:28;;;;;;;6.72;5.28;;;;;;;;;;5031211;28;20089;-75
2021/12/14 05:29:55;;;;;;;7.85;5.70;;;;;;;;;;5016248;28;20389;-76
2021/12/14 05:32:21;;;;;;;8.73;5.07;;;;;;;;;;5031155;28;20490;-75
2021/12/14 05:34:49;;;;;;;7.43;5.28;;;;;;;;;;5032315;28;20025;-75
2021/12/14 05:37:28;;;;;;;7.70;5.68;;;;;;;;;;5032998;28;20021;-74
2021/12/14 05:40:02;;;;;;;7.85;5.28;;;;;;;;;;5033037;28;20025;-78
2021/12/14 05:45:17;;;;;;;7.78;5.28;;;;;;;;;;5033193;28;20507;-75
2021/12/14 05:47:48;;;;;;;8.85;4.68;;;;;;;;;;5031385;28;20029;-74
2021/12/14 05:50:15;;;;;;;6.55;4.43;;;;;;;;;;5033031;28;20076;-75
2021/12/14 05:52:41;;;;;;;6.45;4.18;;;;;;;;;;5031813;28;20391;-75
2021/12/14 05:55:08;;;;;;;4.72;3.88;;;;;;;;;;5033057;28;20025;-75
2021/12/14 05:57:34;;;;;;;3.85;3.15;;;;;;;;;;5032289;28;20030;-75
2021/12/14 06:00:00;;;;;;;7.15;4.18;;;;;;;;;;5033450;28;20036;-75
2021/12/14 06:02:26;;;;;;;6.47;4.47;;;;;;;;;;5032623;28;20026;-74
2021/12/14 06:04:53;;;;;;;11.75;7.22;;;;;;;;;;5033059;28;20053;-75
2021/12/14 06:07:20;;;;;;;12.45;7.50;;;;;;;;;;5032719;28;20044;-77
2021/12/14 06:09:48;;;;;;;11.25;6.75;;;;;;;;;;5033049;28;20513;-76
2021/12/14 06:12:22;;;;;;;8.73;5.55;;;;;;;;;;5033163;28;20021;-77
2021/12/14 06:14:53;;;;;;;8.75;4.97;;;;;;;;;;5032501;28;20028;-76
2021/12/14 06:17:23;;;;;;;4.22;3.08;;;;;;;;;;5034341;28;20025;-75
2021/12/14 06:19:52;;;;;;;4.10;3.08;;;;;;;;;;5035056;28;20026;-76
2021/12/14 06:22:19;;;;;;;4.70;2.58;;;;;;;;;;5035802;28;20053;-76
2021/12/14 06:24:57;;;;;;;3.35;2.10;;;;;;;;;;5034286;28;20055;-75
2021/12/14 06:27:24;;;;;;;2.60;1.77;;;;;;;;;;5035918;28;20089;-77
2021/12/14 06:29:59;;;;;;;2.63;2.10;;;;;;;;;;5037595;28;20026;-77
2021/12/14 06:32:24;;;;;;;2.42;2.00;;;;;;;;;;5020056;28;20029;-77
2021/12/14 06:34:53;;;;;;;2.30;1.70;;;;;;;;;;5034125;28;20025;-76
2021/12/14 06:37:27;;;;;;;2.08;1.73;;;;;;;;;;5035989;28;20021;-77
2021/12/14 06:39:58;;;;;;;1.55;1.45;;;;;;;;;;5034854;28;20023;-77
2021/12/14 06:42:24;;;;;;;;;;;;;;;;;;5034785;28;20033;-77
2021/12/14 06:44:50;;;;;;;2.88;2.10;;;;;;;;;;5035435;28;19905;-76
2021/12/14 06:47:16;;;;;;;2.25;1.58;;;;;;;;;;5035324;28;20064;-76
2021/12/14 06:49:42;;;;;;;2.10;1.88;;;;;;;;;;5033722;28;20047;-76
2021/12/14 06:52:08;;;;;;;2.42;1.80;;;;;;;;;;5032610;28;20029;-77
2021/12/14 06:54:34;;;;;;;4.18;2.30;;;;;;;;;;5033865;28;20446;-76
2021/12/14 06:57:02;;;;;;;4.30;2.25;;;;;;;;;;5035589;28;20021;-76
2021/12/14 06:59:28;;;;;;;4.13;2.53;;;;;;;;;;5035158;28;20100;-76
2021/12/14 07:01:57;;;;;;;4.00;2.55;;;;;;;;;;5022412;28;20025;-74
2021/12/14 07:04:29;;;;;;;3.60;2.88;;;;;;;;;;5034023;28;20101;-74
2021/12/14 07:06:59;;;;;;;3.90;3.00;;;;;;;;;;5035118;28;20030;-75
2021/12/14 07:09:28;;;;;;;4.20;3.13;;;;;;;;;;5035960;28;20025;-74
2021/12/14 07:11:57;;;;;;;4.20;3.05;;;;;;;;;;5038589;28;20041;-75
2021/12/14 07:14:32;;;;;;;6.10;3.80;;;;;;;;;;5034103;28;20471;-74
2021/12/14 07:17:08;;;;;;;4.32;3.67;;;;;;;;;;5026455;28;20204;-76
2021/12/14 07:19:40;;;;;;;4.90;3.58;;;;;;;;;;5045233;28;20391;-78
2021/12/14 07:22:06;;;;;;;3.97;2.90;;;;;;;;;;5033843;28;20032;-75
2021/12/14 07:24:37;;;;;;;4.43;3.30;;;;;;;;;;5034357;28;20026;-75
2021/12/14 07:27:21;;;;;;;5.30;3.20;;;;;;;;;;5026893;28;20526;-75
2021/12/14 07:29:47;;;;;;;4.63;3.30;;;;;;;;;;5030036;28;20060;-76
2021/12/14 07:32:13;;;;;;;4.65;3.15;;;;;;;;;;5030457;28;20017;-75
2021/12/14 07:34:39;;;;;;;4.60;3.35;;;;;;;;;;5014728;28;20083;-77
2021/12/14 07:37:05;;;;;;;5.32;3.50;;;;;;;;;;5024411;28;20026;-77
2021/12/14 07:39:31;;;;;;;4.20;3.28;;;;;;;;;;5033500;28;20029;-76
2021/12/14 07:41:58;;;;;;;4.47;3.17;;;;;;;;;;5031689;28;20451;-76
2021/12/14 07:44:26;;;;;;;3.53;2.80;;;;;;;;;;5023806;28;20047;-73
2021/12/14 07:46:54;;;;;;;5.82;3.67;;;;;;;;;;5032224;28;20025;-75
2021/12/14 07:49:23;;;;;;;5.85;3.55;;;;;;;;;;5022678;28;20558;-77
2021/12/14 07:51:50;;;;;;;5.82;3.42;;;;;;;;;;5024407;28;20060;-75
2021/12/14 07:54:19;;;;;;;15.68;10.48;;;;;;;;;;5031243;28;20068;-73
2021/12/14 07:56:47;;;;;;;5.68;3.42;;;;;;;;;;5031779;28;20515;-73
2021/12/14 07:59:22;;;;;;;4.85;3.10;;;;;;;;;;5033950;28;20034;-75
2021/12/14 08:01:48;;;;;;;4.40;3.03;;;;;;;;;;5020876;28;20042;-74
2021/12/14 08:04:14;;;;;;;3.60;2.55;;;;;;;;;;5028953;28;20056;-76
2021/12/14 08:06:45;;;;;;;5.88;3.22;;;;;;;;;;5033763;28;20024;-73
2021/12/14 08:09:19;;;;;;;6.03;2.70;;;;;;;;;;5033814;28;20487;-72
2021/12/14 08:11:47;;;;;;;2.63;2.42;;;;;;;;;;5034065;28;20030;-74
2021/12/14 08:14:16;;;;;;;3.22;2.55;;;;;;;;;;5032932;28;20033;-76
2021/12/14 08:16:52;;;;;;;3.28;2.75;;;;;;;;;;5033043;28;20022;-75
2021/12/14 08:19:27;;;;;;;4.15;3.17;;;;;;;;;;5033591;28;20033;-75
2021/12/14 08:21:55;;;;;;;4.53;2.85;;;;;;;;;;5031074;28;20026;-77
2021/12/14 08:24:21;;;;;;;7.85;3.58;;;;;;;;;;5033184;28;20032;-74
2021/12/14 08:26:51;;;;;;;4.28;3.55;;;;;;;;;;5032159;28;20025;-77
2021/12/14 08:29:18;;;;;;;7.13;4.85;;;;;;;;;;5033684;28;20422;-77
2021/12/14 08:31:53;;;;;;;7.72;4.30;;;;;;;;;;5034070;28;20022;-76
2021/12/14 08:34:24;;;;;;;7.55;4.78;;;;;;;;;;5032534;28;20035;-76
2021/12/14 08:37:25;;;;;;;8.82;5.18;;;;;;;;;;5033875;28;20021;-76
2021/12/14 08:39:51;;;;;;;;;;;;;;;;;;4973619;28;20034;-75
2021/12/14 08:42:27;;;;;;;16.25;8.90;;;;;;;;;;5005935;28;20008;-73
2021/12/14 08:44:55;;;;;;;9.98;6.05;;;;;;;;;;5014279;28;20029;-73
2021/12/14 08:47:27;;;;;;;5.70;4.45;;;;;;;;;;5014150;28;20511;-74
2021/12/14 08:49:54;;;;;;;5.10;4.03;;;;;;;;;;5014695;28;20150;-75
2021/12/14 08:52:21;;;;;;;8.90;5.28;;;;;;;;;;5013797;28;20021;-74
2021/12/14 08:54:47;;;;;;;16.10;8.60;;;;;;;;;;5011593;28;20128;-74
2021/12/14 08:57:18;;;;;;;9.68;5.88;;;;;;;;;;5012653;28;20057;-75
2021/12/14 08:59:44;;;;;;;;;;;;;;;;;;5014273;28;20068;-76
2021/12/14 09:02:13;;;;;;;17.65;8.60;;;;;;;;;;5013728;28;19906;-74
2021/12/14 09:04:44;;;;;;;26.95;14.43;;;;;;;;;;5013107;28;20030;-75
2021/12/14 09:07:20;;;;;;;13.48;8.45;;;;;;;;;;5038268;23;20547;-73
2021/12/14 09:09:46;;;;;;;11.60;6.47;;;;;;;;;;5014412;28;20476;-73
2021/12/14 09:12:24;;;;;;;20.67;10.48;;;;;;;;;;5014737;28;20037;-72
2021/12/14 09:14:50;;;;;;;9.70;6.68;;;;;;;;;;5014213;28;20128;-73
2021/12/14 09:17:17;;;;;;;8.80;6.18;;;;;;;;;;5014170;28;20455;-72
2021/12/14 09:19:44;;;;;;;11.05;7.10;;;;;;;;;;5014656;28;20018;-73
2021/12/14 09:22:13;;;;;;;13.65;8.50;;;;;;;;;;5021365;28;20018;-72
2021/12/14 09:24:40;;;;;;;15.90;9.73;;;;;;;;;;5033806;28;20029;-72
2021/12/14 09:27:08;;;;;;;15.18;9.93;;;;;;;;;;5034500;28;20022;-72
2021/12/14 09:29:34;;;;;;;9.40;6.85;;;;;;;;;;5034331;28;20376;-73
2021/12/14 09:32:03;;;;;;;13.07;8.02;;;;;;;;;;5033800;28;20021;-73
2021/12/14 09:34:31;;;;;;;10.02;7.68;;;;;;;;;;5033561;28;20076;-73
2021/12/14 09:36:58;;;;;;;9.73;7.03;;;;;;;;;;5034259;28;20056;-73
2021/12/14 09:39:30;;;;;;;8.50;6.70;;;;;;;;;;5033859;28;20165;-72
2021/12/14 09:41:56;;;;;;;9.32;6.70;;;;;;;;;;5034136;28;20033;-73
2021/12/14 09:44:24;;;;;;;10.57;8.20;;;;;;;;;;5032853;28;20026;-73
2021/12/14 09:46:51;;;;;;;15.23;9.13;;;;;;;;;;5034171;28;20025;-73
2021/12/14 09:49:17;;;;;;;17.65;11.48;;;;;;;;;;5035396;28;20072;-72
2021/12/14 09:51:52;;;;;;;9.85;8.02;;;;;;;;;;5034365;28;20037;-72
2021/12/14 09:54:20;;;;;;;12.77;8.18;;;;;;;;;;5025370;28;20368;-72
2021/12/14 09:56:51;;;;;;;11.10;8.20;;;;;;;;;;5034370;28;20422;-73
2021/12/14 09:59:17;;;;;;;9.68;7.20;;;;;;;;;;5033287;28;20029;-72
2021/12/14 10:01:43;;;;;;;7.72;6.18;;;;;;;;;;5033793;28;20151;-73
2021/12/14 10:04:21;;;;;;;14.00;8.80;;;;;;;;;;5033704;28;20049;-72
2021/12/14 10:06:49;;;;;;;11.93;8.20;;;;;;;;;;5033624;28;20111;-74
2021/12/14 10:09:17;;;;;;;20.13;9.18;;;;;;;;;;5033333;28;20052;-71
2021/12/14 10:12:01;;;;;;;11.82;8.10;;;;;;;;;;5033749;28;20037;-72
2021/12/14 10:14:29;;;;;;;14.23;9.13;;;;;;;;;;5031740;28;20180;-73
2021/12/14 10:16:55;;;;;;;12.18;7.63;;;;;;;;;;5032245;28;20029;-72
2021/12/14 10:19:24;;;;;;;10.20;7.93;;;;;;;;;;5032236;28;20052;-73
2021/12/14 10:21:53;;;;;;;12.55;8.80;;;;;;;;;;5032449;28;20021;-72
2021/12/14 10:24:19;;;;;;;9.93;7.38;;;;;;;;;;5032315;28;20017;-73
2021/12/14 10:26:47;;;;;;;12.68;8.02;;;;;;;;;;5047754;28;20029;-74
2021/12/14 10:29:13;;;;;;;14.80;7.70;;;;;;;;;;5036096;28;20048;-74
2021/12/14 10:31:44;;;;;;;14.13;9.95;;;;;;;;;;5046587;28;20028;-73
2021/12/14 10:34:15;;;;;;;11.35;8.20;;;;;;;;;;5041481;28;20544;-72
2021/12/14 10:36:45;;;;;;;11.10;8.70;;;;;;;;;;5037280;28;20092;-72
2021/12/14 10:44:57;;;;;;;11.27;7.93;;;;;;;;;;5029983;28;20303;-68
2021/12/14 10:47:25;;;;;;;12.68;9.40;;;;;;;;;;5047627;28;20057;-70
2021/12/14 10:49:52;;;;;;;11.15;8.68;;;;;;;;;;5038917;28;20075;-70
2021/12/14 10:52:19;;;;;;;11.70;8.48;;;;;;;;;;5040326;28;20025;-70
2021/12/14 10:54:47;;;;;;;13.60;9.02;;;;;;;;;;5025834;28;20037;-70
2021/12/14 10:57:17;;;;;;;12.82;9.68;;;;;;;;;;5033507;28;20441;-70
2021/12/14 10:59:44;;;;;;;14.57;10.05;;;;;;;;;;5022123;28;20116;-71
2021/12/14 11:02:10;;;;;;;15.98;10.38;;;;;;;;;;5034924;28;20402;-70
2021/12/14 11:04:41;;;;;;;11.73;9.60;;;;;;;;;;5044089;28;20029;-71
2021/12/14 11:07:17;;;;;;;14.15;8.88;;;;;;;;;;5032780;28;20087;-70
2021/12/14 11:09:47;;;;;;;13.32;9.57;;;;;;;;;;5023631;28;20548;-70
2021/12/14 11:12:21;;;;;;;13.77;10.10;;;;;;;;;;5043634;28;20037;-71
2021/12/14 11:14:50;;;;;;;13.10;9.80;;;;;;;;;;5035490;28;20442;-71
2021/12/14 11:20:03;;;;;;;12.50;9.10;;;;;;;;;;5039742;28;20036;-71
2021/12/14 11:22:32;;;;;;;13.52;9.40;;;;;;;;;;5037924;28;20490;-71
2021/12/14 11:25:07;;;;;;;11.82;9.30;;;;;;;;;;5046573;28;20025;-71
2021/12/14 11:27:44;;;;;;;13.13;9.65;;;;;;;;;;5030793;28;20095;-71
2021/12/14 11:30:30;;;;;;;13.77;10.45;;;;;;;;;;5039444;28;20037;-70
2021/12/14 11:33:16;;;;;;;10.48;8.65;;;;;;;;;;5033723;28;20060;-71
2021/12/14 11:35:45;;;;;;;12.38;8.40;;;;;;;;;;5017432;28;20443;-69
2021/12/14 11:38:27;;;;;;;13.65;8.85;;;;;;;;;;5030210;28;20021;-71
2021/12/14 11:40:53;;;;;;;10.48;7.82;;;;;;;;;;5028488;28;20021;-68
2021/12/14 11:43:21;;;;;;;12.15;8.88;;;;;;;;;;5026988;28;20041;-68
2021/12/14 11:45:48;;;;;;;10.82;8.50;;;;;;;;;;5030020;28;20171;-68
2021/12/14 11:48:14;;;;;;;13.43;8.40;;;;;;;;;;5030618;28;20017;-68
2021/12/14 11:50:43;;;;;;;11.57;8.23;;;;;;;;;;5030157;28;20036;-68
2021/12/14 11:53:13;;;;;;;10.55;8.57;;;;;;;;;;5027946;28;20025;-68
2021/12/14 11:55:54;;;;;;;11.90;8.60;;;;;;;;;;5019924;28;20030;-68
2021/12/14 11:58:38;;;;;;;10.32;7.65;;;;;;;;;;5012759;28;20021;-68
2021/12/14 12:01:08;;;;;;;11.55;8.95;;;;;;;;;;5012700;28;20022;-68
2021/12/14 12:03:33;;;;;;;13.45;9.15;;;;;;;;;;5031116;28;20108;-68
2021/12/14 12:06:08;;;;;;;11.70;8.90;;;;;;;;;;5032285;28;20054;-68
2021/12/14 12:11:20;;;;;;;11.48;8.23;;;;;;;;;;5032379;28;20047;-68
2021/12/14 12:13:48;;;;;;;9.52;8.10;;;;;;;;;;5030032;28;20061;-68
2021/12/14 12:16:17;;;;;;;8.73;7.28;;;;;;;;;;5031986;28;20460;-69
2021/12/14 12:19:01;;;;;;;12.68;8.32;;;;;;;;;;5032281;28;20026;-68
2021/12/14 12:21:28;;;;;;;9.30;7.18;;;;;;;;;;5034089;28;20067;-68
2021/12/14 12:23:54;;;;;;;14.48;8.90;;;;;;;;;;5033297;28;20029;-68
2021/12/14 12:26:25;;;;;;;9.57;7.68;;;;;;;;;;5032417;28;20133;-68
2021/12/14 12:28:51;;;;;;;6.93;5.20;;;;;;;;;;5033724;28;20037;-68
2021/12/14 12:31:20;;;;;;;10.10;8.13;;;;;;;;;;5033533;28;20033;-68
2021/12/14 12:33:51;;;;;;;9.10;7.55;;;;;;;;;;5032345;28;20471;-69
2021/12/14 12:36:18;;;;;;;12.38;8.20;;;;;;;;;;5032326;28;20159;-69
2021/12/14 12:38:47;;;;;;;10.13;8.30;;;;;;;;;;5031368;28;20071;-68
2021/12/14 12:41:17;;;;;;;9.73;7.20;;;;;;;;;;5031940;28;20025;-68
2021/12/14 12:44:06;;;;;;;12.02;8.02;;;;;;;;;;5032768;28;20025;-67
2021/12/14 12:46:38;;;;;;;10.57;7.97;;;;;;;;;;5033691;28;20517;-67
2021/12/14 12:49:06;;;;;;;11.07;8.23;;;;;;;;;;5033330;28;20033;-68
2021/12/14 12:51:50;;;;;;;11.48;8.10;;;;;;;;;;5032683;28;20084;-67
2021/12/14 12:54:22;;;;;;;11.63;8.50;;;;;;;;;;5032754;28;20486;-68
2021/12/14 12:57:11;;;;;;;10.35;8.00;;;;;;;;;;5032110;28;20037;-67
2021/12/14 12:59:41;;;;;;;11.05;7.95;;;;;;;;;;5033052;28;20088;-68
2021/12/14 13:02:11;;;;;;;10.18;7.68;;;;;;;;;;5033190;28;20112;-68
2021/12/14 13:04:40;;;;;;;11.88;8.43;;;;;;;;;;5032594;28;20030;-68
2021/12/14 13:07:07;;;;;;;10.90;8.48;;;;;;;;;;5032015;28;20049;-68
2021/12/14 13:09:53;;;;;;;11.90;9.25;;;;;;;;;;5033081;28;20028;-67
2021/12/14 13:12:36;;;;;;;10.90;8.20;;;;;;;;;;5032471;28;20049;-68
2021/12/14 13:15:03;;;;;;;10.45;7.40;;;;;;;;;;5031336;28;20090;-67
2021/12/14 13:17:29;;;;;;;11.07;8.27;;;;;;;;;;5032675;28;20391;-67
2021/12/14 13:19:59;;;;;;;10.10;7.93;;;;;;;;;;5031386;28;20025;-68
2021/12/14 13:22:26;;;;;;;13.73;8.57;;;;;;;;;;5032958;28;20515;-67
2021/12/14 13:24:52;;;;;;;12.73;8.80;;;;;;;;;;5032874;28;20355;-67
2021/12/14 13:27:22;;;;;;;12.25;9.18;;;;;;;;;;5033136;28;20036;-71
2021/12/14 13:29:50;;;;;;;10.82;8.00;;;;;;;;;;5033917;28;20022;-67
2021/12/14 13:32:22;;;;;;;10.43;8.55;;;;;;;;;;5032650;28;20041;-68
2021/12/14 13:35:03;;;;;;;10.95;7.90;;;;;;;;;;5030239;28;20025;-68
2021/12/14 13:37:43;;;;;;;10.48;8.65;;;;;;;;;;5030452;28;20025;-67
2021/12/14 13:40:15;;;;;;;10.55;8.35;;;;;;;;;;5029259;28;20368;-68
2021/12/14 13:42:41;;;;;;;10.32;8.13;;;;;;;;;;5030528;28;20415;-68
2021/12/14 13:45:09;;;;;;;10.18;7.80;;;;;;;;;;5028985;28;20036;-68
2021/12/14 13:47:36;;;;;;;9.98;7.70;;;;;;;;;;5030776;28;20036;-68
2021/12/14 13:50:03;;;;;;;11.13;8.48;;;;;;;;;;5030248;28;20018;-67
2021/12/14 13:52:29;;;;;;;10.15;8.25;;;;;;;;;;5028743;28;20035;-67
2021/12/14 13:55:04;;;;;;;9.93;7.57;;;;;;;;;;5012502;28;20387;-67
2021/12/14 13:57:30;;;;;;;14.45;8.80;;;;;;;;;;5011949;28;20026;-68
2021/12/14 13:59:56;;;;;;;10.27;8.00;;;;;;;;;;5024973;28;20025;-68
2021/12/14 14:02:22;;;;;;;17.17;9.45;;;;;;;;;;5031723;28;20017;-69
2021/12/14 14:04:48;;;;;;;12.05;8.68;;;;;;;;;;5029660;28;20032;-68
2021/12/14 14:07:14;;;;;;;10.88;8.27;;;;;;;;;;5029698;28;20091;-68
2021/12/14 14:09:41;;;;;;;12.68;8.85;;;;;;;;;;5031536;28;20021;-68
2021/12/14 14:12:11;;;;;;;12.98;9.68;;;;;;;;;;5031790;28;20068;-68
2021/12/14 14:14:38;;;;;;;12.88;9.23;;;;;;;;;;5031091;28;20033;-69
2021/12/14 14:17:06;;;;;;;11.60;8.60;;;;;;;;;;5031394;28;20534;-68
2021/12/14 14:19:37;;;;;;;12.45;9.55;;;;;;;;;;5028691;28;20083;-68
2021/12/14 14:22:10;;;;;;;15.13;9.48;;;;;;;;;;5030884;28;20041;-68
2021/12/14 14:24:37;;;;;;;13.20;10.07;;;;;;;;;;5028465;28;20032;-68
2021/12/14 14:27:05;;;;;;;12.60;10.13;;;;;;;;;;5030455;28;20025;-68
2021/12/14 14:29:41;;;;;;;12.48;9.73;;;;;;;;;;5030398;28;20052;-68
2021/12/14 14:32:24;;;;;;;12.57;9.75;;;;;;;;;;5031611;28;20037;-67
2021/12/14 14:34:54;;;;;;;14.50;10.55;;;;;;;;;;5029147;28;20026;-68
2021/12/14 14:37:26;;;;;;;15.63;9.85;;;;;;;;;;5029701;28;20471;-68
2021/12/14 14:39:53;;;;;;;12.63;9.63;;;;;;;;;;5031331;28;20025;-68
2021/12/14 14:42:22;;;;;;;11.82;9.88;;;;;;;;;;5030449;28;20462;-68
2021/12/14 14:44:49;;;;;;;16.40;11.27;;;;;;;;;;5027687;28;20028;-68
2021/12/14 14:47:34;;;;;;;14.57;10.68;;;;;;;;;;5030670;28;20041;-68
2021/12/14 14:50:00;;;;;;;16.30;10.65;;;;;;;;;;5030992;28;20025;-68
2021/12/14 14:52:29;;;;;;;15.90;11.75;;;;;;;;;;5030728;28;20028;-68
2021/12/14 14:54:57;;;;;;;15.10;11.20;;;;;;;;;;5030241;28;20097;-69
2021/12/14 14:57:23;;;;;;;15.07;10.85;;;;;;;;;;5031177;28;20026;-69
2021/12/14 14:59:55;;;;;;;18.55;12.77;;;;;;;;;;5030654;28;20022;-68
2021/12/14 15:02:44;;;;;;;18.48;11.32;;;;;;;;;;5031158;28;20021;-68
2021/12/14 15:05:28;;;;;;;19.42;13.38;;;;;;;;;;5030845;28;20018;-68
2021/12/14 15:07:57;;;;;;;15.30;11.18;;;;;;;;;;5030907;28;20029;-68
2021/12/14 15:10:39;;;;;;;18.73;12.25;;;;;;;;;;5031437;28;20036;-69
2021/12/14 15:13:21;;;;;;;16.10;12.30;;;;;;;;;;5030236;28;20208;-68
2021/12/14 15:16:13;;;;;;;15.25;11.52;;;;;;;;;;5075430;22;20140;-75
2021/12/14 15:18:44;;;;;;;15.93;11.02;;;;;;;;;;5047958;28;20040;-71
2021/12/14 15:21:25;;;;;;;15.25;11.38;;;;;;;;;;5049458;28;20052;-73
2021/12/14 15:23:51;;;;;;;19.50;12.98;;;;;;;;;;5048695;28;20021;-74
2021/12/14 15:26:17;;;;;;;18.63;12.45;;;;;;;;;;5049087;28;20406;-73
2021/12/14 15:28:44;;;;;;;16.48;11.68;;;;;;;;;;5049207;28;20142;-74
2021/12/14 15:31:15;;;;;;;21.27;14.07;;;;;;;;;;5050741;28;20029;-73